עמוד ראשי
METAR-TAF:

METAR-TAF

שדות תעופה :

סנטיאגו דה צ'ילה, צ'ילה

קו רוחב: 33-23S, קו אורך: 070-47W, גובה: 475מטר

תצפית מזג אוויר נוכחית

הדו"ח נערך לפני 1דקות, בשעה 06:00 UTC
רוח 3קשר מכיוון דרום-מזרח, משתנה בין מזרח ו דרום
טמפרטורת 14 צלסיוס
לחות 55%
לחץ 1015 hPa
ראות 10 קילומטר או יותר
ללא עננים שבסיסם נמוך מ 5000 רגל או קומולונימבוס

METAR: SCEL 190600Z 14003KT 100V170 CAVOK 14/05 Q1015 NOSIG

זמן: 02:01 (06:01 UTC)

תחזית

הדו"ח נערך לפני 1 שעות ו 29דקות, בשעה 04:32 UTC
תחזית בתוקף מ 19 ב 06 UTC עד 20 ב 06 UTC
רוח 2קשר עם כיוונים משתנים
ראות 10 קילומטר או יותר
ללא עננים שבסיסם נמוך מ 5000 רגל או קומולונימבוס
זמנית מ -
19 ב 10 UTC עד 19 ב 14 UTC
רוח 4קשר מכיוון צפון/צפון-מזרח
ראות: 5000מטר
אובך
יעשה מ
19 ב 15 UTC עד 19 ב 17 UTC
רוח 5קשר מכיוון דרום-מזרח
יעשה מ
19 ב 18 UTC עד 19 ב 20 UTC
רוח 11קשר מכיוון דרום/דרום-מערב

TAF: SCEL 190432Z 1906/2006 VRB02KT CAVOK TX27/1919Z TN09/1910Z TEMPO 1910/1914 02004KT 5000 HZ NSC BECMG 1915/1917 14005KT BECMG 1918/1920 20011KT

תצפיות ותחזיות מזג אוויר לגבי יותר מ- 4,000 שדות תעופה ברחבי העולם. דוחות METAR ו- TAF.

התחנות הזמינות מסומנות בנקודות צהובות ואדומות על גבי המפה.

העבר את העכבר לנקודה הצבעונית על מנת לראות את שם התחנה.

לאחר מכן, לחץ כדי לראות את תוכן ואת תחזיות מזג האוויר.

כדי לשנות את המפה: לחץ על הכפתורים הירוקים עם הפלוס השחור כדי להתקרב; על הכפתור הירוק עם המקף כדי להתרחק; או בחיצים הירוקים למפות סמוכות.


METAR-TAF: